Metropolis, IL

8:20 PM CST on December 08, 2019 (GMT -0600)
Metropolis

Weather History for KM30 - October, 2019

Change the Weather History Date:

Saturday, October 19, 2019

  Actual Average (KPAH) Record (KPAH)
Temperature  
Mean Temperature 56 °F -  
Max Temperature 74 °F 65 °F 90 °F (1938)
Min Temperature 39 °F 43 °F 32 °F (1990)
Degree Days  
Heating Degree Days 8    
Growing Degree Days 6 (Base 50)    
Moisture  
Dew Point 46 °F    
Average Humidity 74    
Maximum Humidity 97    
Minimum Humidity 37    
Precipitation  
Precipitation 0.00 in - - ()
Sea Level Pressure  
Sea Level Pressure 29.84 in    
Wind  
Wind Speed 1 mph (South)    
Max Wind Speed 7 mph    
Max Gust Speed -    
Visibility 10 miles    
Events      
Averages and records for this station are not official NWS values.
T = Trace of Precipitation, MM = Missing Value Source: NWS Daily Summary

Daily Weather History Graph

Daily Weather History Graph

Search for Another Location

Airport or City:

Astronomy

Oct. 19, 2019 Rise Set
Actual Time 7:06 AM CDT 6:12 PM CDT
Civil Twilight 6:40 AM CDT 6:39 PM CDT
Nautical Twilight 6:09 AM CDT 7:09 PM CDT
Astronomical Twilight 5:39 AM CDT 7:39 PM CDT
Moon 10:27 PM CDT (10/19) 12:33 PM CDT (10/19)
Length of Visible Light 11h 59m
Length of Day
11h 06m
Waning Gibbous, 69% of the Moon is Illuminated
Oct 19
Waning Gibbous
Oct 21
Last Quarter
Oct 27
New
Nov 4
First Quarter
Nov 12
Full

Hourly Weather History & Observations

Time (CDT) Temp. Dew Point Humidity Pressure Visibility Wind Dir Wind Speed Gust Speed Precip Events Conditions
12:15 AM 44.4 °F 40.1 °F 85% 29.89 in 10.0 mi Calm Calm - N/A   Clear
12:35 AM 46.2 °F 41.9 °F 85% 29.88 in 10.0 mi Calm Calm - N/A   Clear
12:55 AM 46.2 °F 41.7 °F 84% 29.89 in 10.0 mi Calm Calm - N/A   Clear
1:15 AM 45.0 °F 41.5 °F 88% 29.89 in 10.0 mi Calm Calm - N/A   Clear
1:35 AM 43.2 °F 41.4 °F 93% 29.88 in 10.0 mi Calm Calm - N/A   Clear
1:55 AM 42.3 °F 40.8 °F 95% 29.89 in 10.0 mi Calm Calm - N/A   Clear
2:15 AM 41.4 °F 40.1 °F 95% 29.89 in 10.0 mi Calm Calm - N/A   Clear
2:35 AM 42.3 °F 41.0 °F 95% 29.89 in 10.0 mi Calm Calm - N/A   Clear
2:55 AM 41.5 °F 40.3 °F 95% 29.89 in 10.0 mi Calm Calm - N/A   Clear
3:15 AM 41.0 °F 39.7 °F 95% 29.89 in 10.0 mi Calm Calm - N/A   Clear
3:35 AM 41.4 °F 40.3 °F 96% 29.89 in 10.0 mi Calm Calm - N/A   Clear
3:55 AM 41.4 °F 40.3 °F 96% 29.88 in 10.0 mi Calm Calm - N/A   Clear
4:15 AM 40.6 °F 39.9 °F 97% 29.88 in 10.0 mi Calm Calm - N/A   Clear
4:30 AM 40.1 °F 39.2 °F 97% 29.88 in 7.0 mi Calm Calm - N/A   Clear
4:55 AM 40.3 °F 39.6 °F 97% 29.88 in 10.0 mi Calm Calm - N/A   Clear
5:35 AM 40.1 °F 39.4 °F 97% 29.88 in 10.0 mi Calm Calm - N/A   Clear
5:55 AM 39.9 °F 39.2 °F 97% 29.89 in 10.0 mi Calm Calm - N/A   Clear
6:15 AM 40.6 °F 39.7 °F 97% 29.89 in 10.0 mi Calm Calm - N/A   Clear
6:35 AM 40.6 °F 39.7 °F 97% 29.88 in 10.0 mi Calm Calm - N/A   Clear
6:55 AM 41.4 °F 40.3 °F 96% 29.88 in 10.0 mi Calm Calm - N/A   Clear
7:15 AM 41.4 °F 40.3 °F 96% 29.89 in 10.0 mi Calm Calm - N/A   Clear
7:35 AM 43.0 °F 41.9 °F 96% 29.89 in 10.0 mi Calm Calm - N/A   Clear
7:55 AM 45.7 °F 44.6 °F 96% 29.89 in 10.0 mi Calm Calm - N/A   Clear
8:15 AM 48.9 °F 45.9 °F 89% 29.90 in 10.0 mi Calm Calm - N/A   Clear
8:35 AM 51.1 °F 46.4 °F 84% 29.90 in 10.0 mi Calm Calm - N/A   Clear
8:55 AM 53.4 °F 47.3 °F 80% 29.90 in 10.0 mi Calm Calm - N/A   Clear
9:15 AM 56.3 °F 47.3 °F 72% 29.91 in 10.0 mi SSE 3.5 mph - N/A   Clear
9:35 AM 58.1 °F 46.4 °F 65% 29.91 in 10.0 mi Calm Calm - N/A   Clear
9:55 AM 59.9 °F 47.5 °F 64% 29.90 in 10.0 mi South 4.6 mph - N/A   Clear
10:15 AM 62.2 °F 47.5 °F 58% 29.89 in 10.0 mi South 4.6 mph - N/A   Clear
10:35 AM 63.7 °F 47.7 °F 56% 29.90 in 10.0 mi South 6.9 mph - N/A   Clear
10:55 AM 65.1 °F 47.3 °F 52% 29.89 in 10.0 mi South 4.6 mph - N/A   Clear
11:15 AM 66.4 °F 47.1 °F 50% 29.88 in 10.0 mi South 6.9 mph - N/A   Clear
11:35 AM 68.4 °F 47.1 °F 47% 29.87 in 10.0 mi South 5.8 mph - N/A   Clear
11:55 AM 68.2 °F 45.9 °F 45% 29.86 in 10.0 mi SSE 3.5 mph - N/A   Clear
12:15 PM 68.5 °F 45.0 °F 43% 29.85 in 10.0 mi SE 5.8 mph - N/A   Clear
12:35 PM 70.0 °F 46.8 °F 43% 29.84 in 10.0 mi South 3.5 mph - N/A   Clear
12:55 PM 69.8 °F 46.0 °F 43% 29.83 in 10.0 mi SW 4.6 mph - N/A   Clear
1:15 PM 71.6 °F 45.5 °F 39% 29.82 in 10.0 mi SW 5.8 mph - N/A   Clear
1:55 PM 71.2 °F 45.5 °F 40% 29.80 in 10.0 mi SSW 4.6 mph - N/A   Clear
2:35 PM 72.7 °F 46.8 °F 40% 29.78 in 10.0 mi SSE 6.9 mph - N/A   Clear
2:55 PM 72.9 °F 45.7 °F 38% 29.78 in 10.0 mi South 5.8 mph - N/A   Clear
3:15 PM 73.9 °F 46.2 °F 37% 29.78 in 10.0 mi South 5.8 mph - N/A   Clear
3:35 PM 73.4 °F 46.6 °F 38% 29.77 in 10.0 mi SSW 3.5 mph - N/A   Clear
3:55 PM 74.1 °F 47.8 °F 39% 29.77 in 10.0 mi South 6.9 mph - N/A   Clear
4:15 PM 73.8 °F 47.7 °F 40% 29.77 in 10.0 mi South 4.6 mph - N/A   Clear
4:35 PM 73.4 °F 47.7 °F 40% 29.76 in 10.0 mi South 4.6 mph - N/A   Clear
4:55 PM 72.9 °F 48.2 °F 42% 29.76 in 10.0 mi SSE 4.6 mph - N/A   Clear
5:15 PM 72.1 °F 48.9 °F 44% 29.76 in 10.0 mi South 3.5 mph - N/A   Clear
5:35 PM 69.4 °F 49.5 °F 49% 29.77 in 10.0 mi South 3.5 mph - N/A   Clear
5:55 PM 65.5 °F 51.4 °F 60% 29.77 in 10.0 mi Calm Calm - N/A   Clear
6:15 PM 61.9 °F 50.9 °F 67% 29.77 in 7.0 mi Calm Calm - N/A   Clear
6:35 PM 58.8 °F 50.5 °F 74% 29.78 in 10.0 mi Calm Calm - N/A   Clear
6:55 PM 59.7 °F 50.9 °F 73% 29.78 in 10.0 mi Calm Calm - N/A   Clear
7:15 PM 58.1 °F 51.6 °F 79% 29.79 in 10.0 mi Calm Calm - N/A   Clear
7:35 PM 57.4 °F 51.8 °F 82% 29.79 in 10.0 mi Calm Calm - N/A   Clear
7:55 PM 59.0 °F 51.6 °F 76% 29.79 in 10.0 mi Calm Calm - N/A   Clear
8:15 PM 57.9 °F 52.0 °F 81% 29.79 in 10.0 mi Calm Calm - N/A   Clear
8:35 PM 56.3 °F 50.9 °F 82% 29.80 in 10.0 mi Calm Calm - N/A   Scattered Clouds
8:55 PM 55.4 °F 50.5 °F 84% 29.80 in 10.0 mi Calm Calm - N/A   Mostly Cloudy
9:15 PM 53.8 °F 50.0 °F 87% 29.81 in 7.0 mi Calm Calm - N/A   Scattered Clouds
9:35 PM 54.9 °F 50.9 °F 86% 29.82 in 10.0 mi Calm Calm - N/A   Clear
9:55 PM 54.5 °F 51.1 °F 88% 29.82 in 10.0 mi Calm Calm - N/A   Clear
10:15 PM 53.6 °F 50.4 °F 89% 29.82 in 10.0 mi Calm Calm - N/A   Clear
10:35 PM 52.9 °F 50.4 °F 91% 29.82 in 10.0 mi Calm Calm - N/A   Clear
10:55 PM 52.9 °F 50.9 °F 93% 29.82 in 10.0 mi Calm Calm - N/A   Clear
11:15 PM 53.1 °F 50.7 °F 92% 29.82 in 10.0 mi Calm Calm - N/A   Clear
11:35 PM 53.6 °F 51.3 °F 92% 29.82 in 10.0 mi Calm Calm - N/A   Clear
11:55 PM 53.2 °F 51.4 °F 94% 29.81 in 10.0 mi Calm Calm - N/A   Clear